La Grange, AR (72352)

1:05 PM CDT on March 30, 2017 (GMT -0500)
marianna | | Change Station

Elev 210 ft 34.77 °N, 90.77 °W | Updated 23 seconds ago

Partly Cloudy
Partly Cloudy
72.3 °F
Feels Like 77 °F
N
7.0
Wind Variable Wind from SW

Today
High -- | Low -- °F
--% Chance of Precip.
Yesterday
High -- | Low -- °F
Precip. -- in
Pressure 29.67 in
Visibility 10.0 miles
Clouds Scattered Clouds 3300 ft
Scattered Clouds 3900 ft
Scattered Clouds 4500 ft
Heat Index 77 °F
Dew Point 52 °F
Humidity 49%
Rainfall 0.40 in
Snow Depth Not available.
6:52 AM 7:22 PM
Waxing Crescent, 10% visible
METAR KUTA 301755Z AUTO 21019G30KT 10SM SCT033 SCT039 SCT045 22/13 A2967 RMK AO2 TSNO
Pressure 29.67 in
Visibility 10.0 miles
Clouds Scattered Clouds 3300 ft
Scattered Clouds 3900 ft
Scattered Clouds 4500 ft
Heat Index 77 °F
Dew Point 52 °F
Humidity 49%
Rainfall 0.40 in
Snow Depth Not available.
6:52 AM 7:22 PM
Waxing Crescent, 10% visible
METAR KUTA 301755Z AUTO 21019G30KT 10SM SCT033 SCT039 SCT045 22/13 A2967 RMK AO2 TSNO

Get Severe Weather Alerts

Thanks for signing up!

Be on the lookout for a verification email in your inbox.

You'll start receiving the daily forecast at 8 AM.

×

10-Day Weather Forecast

Almanac

Astronomy

Mar. 30, 2017 Rise Set
Actual Time
Civil Twilight
Nautical Twilight
Astronomical Twilight
Moon
Length of Visible Light
Length of Day
Tomorrow will be .
, % of the Moon is Illuminated

Today's Extremes

State Highs State Lows

Community

WunderPhotos

Upload Photos

1,962,540 photos uploaded!

WunderBlog® & News

Nearby

Air Quality

  Air Quality AQ Index Pollutant
Not available.

Snow Depth

Station Depth Elevation

Earthquake Activity

City Distance Mag. Time & Date
Minimum magnitude displayed is 2.5.

Earthquake Activity

City Distance Mag. Time & Date
Minimum magnitude displayed is 2.5.

Coastal Water Temperatures

Place Temperature

Stations

Nearby Weather Stations

Station Location Temp. Windchill Dew Point Humidity Wind Precip. Elev Updated Type
                   

Watches & Warnings

There are currently no watches in effect.